sensor_id;sensor_type;location;lat;lon;timestamp;P1;durP1;ratioP1;P2;durP2;ratioP2
24157;SDS011;12316;50.904;4.200;2023-01-04T00:01:17;4.10;;;2.00;;
24157;SDS011;12316;50.904;4.200;2023-01-04T00:03:45;5.35;;;2.20;;
24157;SDS011;12316;50.904;4.200;2023-01-04T00:06:11;6.07;;;2.50;;
24157;SDS011;12316;50.904;4.200;2023-01-04T00:08:38;6.10;;;2.22;;
24157;SDS011;12316;50.904;4.200;2023-01-04T00:13:37;7.28;;;2.03;;
24157;SDS011;12316;50.904;4.200;2023-01-04T00:16:05;4.32;;;2.40;;
24157;SDS011;12316;50.904;4.200;2023-01-04T00:18:33;5.20;;;2.00;;
24157;SDS011;12316;50.904;4.200;2023-01-04T00:23:31;4.35;;;2.17;;
24157;SDS011;12316;50.904;4.200;2023-01-04T00:25:58;6.60;;;2.30;;
24157;SDS011;12316;50.904;4.200;2023-01-04T00:28:24;5.65;;;2.35;;
24157;SDS011;12316;50.904;4.200;2023-01-04T00:30:49;7.00;;;2.40;;
24157;SDS011;12316;50.904;4.200;2023-01-04T00:33:15;4.32;;;2.08;;
24157;SDS011;12316;50.904;4.200;2023-01-04T00:35:40;4.53;;;2.25;;
24157;SDS011;12316;50.904;4.200;2023-01-04T00:38:06;6.38;;;2.20;;
24157;SDS011;12316;50.904;4.200;2023-01-04T00:40:32;4.07;;;2.40;;
24157;SDS011;12316;50.904;4.200;2023-01-04T00:42:58;7.10;;;2.40;;
24157;SDS011;12316;50.904;4.200;2023-01-04T00:45:24;5.63;;;2.50;;
24157;SDS011;12316;50.904;4.200;2023-01-04T00:47:49;4.53;;;2.55;;
24157;SDS011;12316;50.904;4.200;2023-01-04T00:50:15;7.53;;;2.60;;
24157;SDS011;12316;50.904;4.200;2023-01-04T00:52:40;9.70;;;2.83;;
24157;SDS011;12316;50.904;4.200;2023-01-04T00:55:06;5.10;;;2.80;;
24157;SDS011;12316;50.904;4.200;2023-01-04T00:57:33;8.48;;;3.35;;
24157;SDS011;12316;50.904;4.200;2023-01-04T00:59:58;5.72;;;3.25;;
24157;SDS011;12316;50.904;4.200;2023-01-04T01:02:24;6.45;;;3.30;;
24157;SDS011;12316;50.904;4.200;2023-01-04T01:04:49;5.07;;;2.90;;
24157;SDS011;12316;50.904;4.200;2023-01-04T01:07:15;6.35;;;3.03;;
24157;SDS011;12316;50.904;4.200;2023-01-04T01:09:41;6.43;;;3.10;;
24157;SDS011;12316;50.904;4.200;2023-01-04T01:12:06;5.78;;;3.42;;
24157;SDS011;12316;50.904;4.200;2023-01-04T01:14:32;5.72;;;3.47;;
24157;SDS011;12316;50.904;4.200;2023-01-04T01:16:57;6.45;;;3.50;;
24157;SDS011;12316;50.904;4.200;2023-01-04T01:19:24;6.30;;;3.33;;
24157;SDS011;12316;50.904;4.200;2023-01-04T01:21:51;4.85;;;3.50;;
24157;SDS011;12316;50.904;4.200;2023-01-04T01:24:17;6.43;;;3.70;;
24157;SDS011;12316;50.904;4.200;2023-01-04T01:26:44;7.00;;;3.58;;
24157;SDS011;12316;50.904;4.200;2023-01-04T01:29:10;7.90;;;3.78;;
24157;SDS011;12316;50.904;4.200;2023-01-04T01:31:35;7.22;;;3.90;;
24157;SDS011;12316;50.904;4.200;2023-01-04T01:34:01;7.53;;;4.00;;
24157;SDS011;12316;50.904;4.200;2023-01-04T01:36:27;9.65;;;4.15;;
24157;SDS011;12316;50.904;4.200;2023-01-04T01:38:53;6.13;;;4.07;;
24157;SDS011;12316;50.904;4.200;2023-01-04T01:41:23;6.22;;;3.85;;
24157;SDS011;12316;50.904;4.200;2023-01-04T01:46:22;8.30;;;4.20;;
24157;SDS011;12316;50.904;4.200;2023-01-04T01:49:01;8.25;;;4.13;;
24157;SDS011;12316;50.904;4.200;2023-01-04T01:51:41;6.68;;;4.15;;
24157;SDS011;12316;50.904;4.200;2023-01-04T01:54:09;7.25;;;3.85;;
24157;SDS011;12316;50.904;4.200;2023-01-04T01:56:42;7.05;;;3.70;;
24157;SDS011;12316;50.904;4.200;2023-01-04T01:59:09;6.40;;;4.00;;
24157;SDS011;12316;50.904;4.200;2023-01-04T02:01:37;8.38;;;3.95;;
24157;SDS011;12316;50.904;4.200;2023-01-04T02:04:03;6.35;;;3.80;;
24157;SDS011;12316;50.904;4.200;2023-01-04T02:06:33;6.05;;;3.90;;
24157;SDS011;12316;50.904;4.200;2023-01-04T02:09:03;9.80;;;3.90;;
24157;SDS011;12316;50.904;4.200;2023-01-04T02:11:29;7.82;;;3.65;;
24157;SDS011;12316;50.904;4.200;2023-01-04T02:13:55;8.00;;;3.90;;
24157;SDS011;12316;50.904;4.200;2023-01-04T02:16:51;10.68;;;3.83;;
24157;SDS011;12316;50.904;4.200;2023-01-04T02:45:18;7.80;;;3.85;;
24157;SDS011;12316;50.904;4.200;2023-01-04T02:47:49;11.15;;;4.53;;
24157;SDS011;12316;50.904;4.200;2023-01-04T02:50:38;7.97;;;3.58;;
24157;SDS011;12316;50.904;4.200;2023-01-04T02:53:16;8.68;;;3.80;;
24157;SDS011;12316;50.904;4.200;2023-01-04T03:05:21;8.98;;;3.60;;
24157;SDS011;12316;50.904;4.200;2023-01-04T03:08:34;5.30;;;3.20;;
24157;SDS011;12316;50.904;4.200;2023-01-04T03:11:08;10.20;;;3.42;;
24157;SDS011;12316;50.904;4.200;2023-01-04T03:14:14;6.68;;;3.22;;
24157;SDS011;12316;50.904;4.200;2023-01-04T03:16:46;7.85;;;2.95;;
24157;SDS011;12316;50.904;4.200;2023-01-04T03:19:13;7.28;;;3.15;;
24157;SDS011;12316;50.904;4.200;2023-01-04T03:22:01;9.57;;;2.80;;
24157;SDS011;12316;50.904;4.200;2023-01-04T03:24:28;11.18;;;2.97;;
24157;SDS011;12316;50.904;4.200;2023-01-04T03:27:14;9.30;;;3.03;;
24157;SDS011;12316;50.904;4.200;2023-01-04T03:30:03;10.02;;;2.85;;
24157;SDS011;12316;50.904;4.200;2023-01-04T03:32:55;5.57;;;2.53;;
24157;SDS011;12316;50.904;4.200;2023-01-04T03:35:57;6.75;;;2.88;;
24157;SDS011;12316;50.904;4.200;2023-01-04T03:41:29;5.97;;;2.60;;
24157;SDS011;12316;50.904;4.200;2023-01-04T03:44:27;7.75;;;2.70;;
24157;SDS011;12316;50.904;4.200;2023-01-04T03:47:35;5.93;;;3.08;;
24157;SDS011;12316;50.904;4.200;2023-01-04T03:50:30;5.38;;;3.50;;
24157;SDS011;12316;50.904;4.200;2023-01-04T03:53:02;5.78;;;3.15;;
24157;SDS011;12316;50.904;4.200;2023-01-04T03:55:30;6.30;;;3.30;;
24157;SDS011;12316;50.904;4.200;2023-01-04T03:57:59;3.50;;;2.72;;
24157;SDS011;12316;50.904;4.200;2023-01-04T04:00:25;9.65;;;2.95;;
24157;SDS011;12316;50.904;4.200;2023-01-04T04:02:52;5.75;;;2.50;;
24157;SDS011;12316;50.904;4.200;2023-01-04T04:05:21;9.80;;;2.70;;
24157;SDS011;12316;50.904;4.200;2023-01-04T04:08:08;6.35;;;2.80;;
24157;SDS011;12316;50.904;4.200;2023-01-04T04:10:50;6.82;;;2.83;;
24157;SDS011;12316;50.904;4.200;2023-01-04T04:13:16;7.68;;;2.90;;
24157;SDS011;12316;50.904;4.200;2023-01-04T04:15:42;7.82;;;2.70;;
24157;SDS011;12316;50.904;4.200;2023-01-04T04:18:08;5.60;;;2.45;;
24157;SDS011;12316;50.904;4.200;2023-01-04T04:20:33;5.63;;;2.53;;
24157;SDS011;12316;50.904;4.200;2023-01-04T04:22:59;5.65;;;2.20;;
24157;SDS011;12316;50.904;4.200;2023-01-04T04:25:25;5.68;;;2.10;;
24157;SDS011;12316;50.904;4.200;2023-01-04T04:27:51;3.05;;;2.28;;
24157;SDS011;12316;50.904;4.200;2023-01-04T04:30:16;3.92;;;2.20;;
24157;SDS011;12316;50.904;4.200;2023-01-04T04:32:42;8.15;;;2.25;;
24157;SDS011;12316;50.904;4.200;2023-01-04T04:35:09;5.70;;;1.90;;
24157;SDS011;12316;50.904;4.200;2023-01-04T04:37:34;5.07;;;2.40;;
24157;SDS011;12316;50.904;4.200;2023-01-04T04:40:01;4.97;;;2.20;;
24157;SDS011;12316;50.904;4.200;2023-01-04T04:42:27;4.82;;;1.70;;
24157;SDS011;12316;50.904;4.200;2023-01-04T04:44:53;5.05;;;1.83;;
24157;SDS011;12316;50.904;4.200;2023-01-04T04:47:20;4.22;;;1.90;;
24157;SDS011;12316;50.904;4.200;2023-01-04T04:49:46;5.25;;;2.08;;
24157;SDS011;12316;50.904;4.200;2023-01-04T04:52:12;4.45;;;1.83;;
24157;SDS011;12316;50.904;4.200;2023-01-04T04:54:38;5.07;;;1.88;;
24157;SDS011;12316;50.904;4.200;2023-01-04T04:57:03;3.85;;;1.73;;
24157;SDS011;12316;50.904;4.200;2023-01-04T04:59:30;4.00;;;1.60;;
24157;SDS011;12316;50.904;4.200;2023-01-04T05:01:55;4.45;;;1.80;;
24157;SDS011;12316;50.904;4.200;2023-01-04T05:04:21;4.13;;;1.73;;
24157;SDS011;12316;50.904;4.200;2023-01-04T05:06:47;3.65;;;1.50;;
24157;SDS011;12316;50.904;4.200;2023-01-04T05:09:14;4.57;;;1.60;;
24157;SDS011;12316;50.904;4.200;2023-01-04T05:11:40;5.78;;;1.60;;
24157;SDS011;12316;50.904;4.200;2023-01-04T05:14:25;4.35;;;1.50;;
24157;SDS011;12316;50.904;4.200;2023-01-04T05:16:50;3.63;;;1.67;;
24157;SDS011;12316;50.904;4.200;2023-01-04T05:19:16;4.82;;;1.65;;
24157;SDS011;12316;50.904;4.200;2023-01-04T05:21:42;4.32;;;1.80;;
24157;SDS011;12316;50.904;4.200;2023-01-04T05:24:08;4.22;;;1.63;;
24157;SDS011;12316;50.904;4.200;2023-01-04T05:26:35;3.58;;;1.42;;
24157;SDS011;12316;50.904;4.200;2023-01-04T05:29:01;3.72;;;1.52;;
24157;SDS011;12316;50.904;4.200;2023-01-04T05:31:26;3.67;;;1.63;;
24157;SDS011;12316;50.904;4.200;2023-01-04T05:33:53;3.78;;;1.52;;
24157;SDS011;12316;50.904;4.200;2023-01-04T05:36:19;3.15;;;1.55;;
24157;SDS011;12316;50.904;4.200;2023-01-04T05:38:44;2.45;;;1.60;;
24157;SDS011;12316;50.904;4.200;2023-01-04T05:41:10;2.70;;;1.33;;
24157;SDS011;12316;50.904;4.200;2023-01-04T05:43:56;3.40;;;1.58;;
24157;SDS011;12316;50.904;4.200;2023-01-04T05:46:22;1.83;;;1.35;;
24157;SDS011;12316;50.904;4.200;2023-01-04T05:48:47;5.78;;;1.63;;
24157;SDS011;12316;50.904;4.200;2023-01-04T05:51:13;4.30;;;1.40;;
24157;SDS011;12316;50.904;4.200;2023-01-04T05:53:38;6.00;;;1.40;;
24157;SDS011;12316;50.904;4.200;2023-01-04T05:56:04;2.78;;;1.30;;
24157;SDS011;12316;50.904;4.200;2023-01-04T05:58:30;2.55;;;1.40;;
24157;SDS011;12316;50.904;4.200;2023-01-04T06:00:55;2.90;;;1.20;;
24157;SDS011;12316;50.904;4.200;2023-01-04T06:03:21;3.42;;;1.20;;
24157;SDS011;12316;50.904;4.200;2023-01-04T06:05:50;2.78;;;1.25;;
24157;SDS011;12316;50.904;4.200;2023-01-04T06:08:16;4.28;;;1.10;;
24157;SDS011;12316;50.904;4.200;2023-01-04T06:10:42;3.10;;;1.23;;
24157;SDS011;12316;50.904;4.200;2023-01-04T06:13:07;2.65;;;0.90;;
24157;SDS011;12316;50.904;4.200;2023-01-04T06:15:33;3.72;;;0.90;;
24157;SDS011;12316;50.904;4.200;2023-01-04T06:17:58;1.48;;;0.90;;
24157;SDS011;12316;50.904;4.200;2023-01-04T06:20:24;2.20;;;1.00;;
24157;SDS011;12316;50.904;4.200;2023-01-04T06:22:50;2.15;;;1.20;;
24157;SDS011;12316;50.904;4.200;2023-01-04T06:25:15;2.60;;;1.17;;
24157;SDS011;12316;50.904;4.200;2023-01-04T06:27:41;2.55;;;1.30;;
24157;SDS011;12316;50.904;4.200;2023-01-04T06:30:07;2.83;;;1.25;;
24157;SDS011;12316;50.904;4.200;2023-01-04T06:32:33;1.70;;;0.98;;
24157;SDS011;12316;50.904;4.200;2023-01-04T06:34:59;3.88;;;1.40;;
24157;SDS011;12316;50.904;4.200;2023-01-04T06:37:25;2.35;;;1.10;;
24157;SDS011;12316;50.904;4.200;2023-01-04T06:39:52;3.47;;;1.30;;
24157;SDS011;12316;50.904;4.200;2023-01-04T06:42:17;4.50;;;1.25;;
24157;SDS011;12316;50.904;4.200;2023-01-04T06:45:02;2.70;;;1.40;;
24157;SDS011;12316;50.904;4.200;2023-01-04T06:47:28;4.90;;;1.40;;
24157;SDS011;12316;50.904;4.200;2023-01-04T06:49:54;3.63;;;1.38;;
24157;SDS011;12316;50.904;4.200;2023-01-04T06:52:20;2.00;;;1.17;;
24157;SDS011;12316;50.904;4.200;2023-01-04T06:54:45;3.53;;;1.20;;
24157;SDS011;12316;50.904;4.200;2023-01-04T06:57:11;5.95;;;1.20;;
24157;SDS011;12316;50.904;4.200;2023-01-04T06:59:37;3.50;;;1.10;;
24157;SDS011;12316;50.904;4.200;2023-01-04T07:02:02;5.13;;;1.25;;
24157;SDS011;12316;50.904;4.200;2023-01-04T07:04:28;5.85;;;1.27;;
24157;SDS011;12316;50.904;4.200;2023-01-04T07:06:54;2.65;;;1.10;;
24157;SDS011;12316;50.904;4.200;2023-01-04T07:09:19;5.30;;;1.52;;
24157;SDS011;12316;50.904;4.200;2023-01-04T07:11:45;3.33;;;1.00;;
24157;SDS011;12316;50.904;4.200;2023-01-04T07:14:10;4.93;;;1.20;;
24157;SDS011;12316;50.904;4.200;2023-01-04T07:16:36;3.70;;;1.10;;
24157;SDS011;12316;50.904;4.200;2023-01-04T07:19:01;5.70;;;1.40;;
24157;SDS011;12316;50.904;4.200;2023-01-04T07:21:27;4.50;;;1.40;;
24157;SDS011;12316;50.904;4.200;2023-01-04T07:23:53;4.63;;;1.25;;
24157;SDS011;12316;50.904;4.200;2023-01-04T07:26:19;4.03;;;0.90;;
24157;SDS011;12316;50.904;4.200;2023-01-04T07:28:45;4.75;;;1.17;;
24157;SDS011;12316;50.904;4.200;2023-01-04T07:31:29;3.95;;;1.20;;
24157;SDS011;12316;50.904;4.200;2023-01-04T07:33:54;2.08;;;1.10;;
24157;SDS011;12316;50.904;4.200;2023-01-04T07:36:20;2.28;;;1.10;;
24157;SDS011;12316;50.904;4.200;2023-01-04T07:38:46;3.35;;;1.08;;
24157;SDS011;12316;50.904;4.200;2023-01-04T07:41:11;3.90;;;1.30;;
24157;SDS011;12316;50.904;4.200;2023-01-04T07:43:37;6.05;;;1.17;;
24157;SDS011;12316;50.904;4.200;2023-01-04T07:46:02;3.50;;;1.02;;
24157;SDS011;12316;50.904;4.200;2023-01-04T07:48:28;2.63;;;1.10;;
24157;SDS011;12316;50.904;4.200;2023-01-04T07:50:54;3.28;;;1.17;;
24157;SDS011;12316;50.904;4.200;2023-01-04T07:53:19;2.08;;;1.05;;
24157;SDS011;12316;50.904;4.200;2023-01-04T07:55:45;2.17;;;1.00;;
24157;SDS011;12316;50.904;4.200;2023-01-04T07:58:10;4.82;;;1.20;;
24157;SDS011;12316;50.904;4.200;2023-01-04T08:00:36;2.55;;;1.25;;
24157;SDS011;12316;50.904;4.200;2023-01-04T08:03:02;7.75;;;1.33;;
24157;SDS011;12316;50.904;4.200;2023-01-04T08:05:30;1.95;;;1.00;;
24157;SDS011;12316;50.904;4.200;2023-01-04T08:07:56;3.63;;;1.05;;
24157;SDS011;12316;50.904;4.200;2023-01-04T08:10:22;3.45;;;1.10;;
24157;SDS011;12316;50.904;4.200;2023-01-04T08:12:48;1.70;;;1.10;;
24157;SDS011;12316;50.904;4.200;2023-01-04T08:15:13;4.25;;;1.40;;
24157;SDS011;12316;50.904;4.200;2023-01-04T08:17:39;2.50;;;1.00;;
24157;SDS011;12316;50.904;4.200;2023-01-04T08:20:05;5.13;;;1.35;;
24157;SDS011;12316;50.904;4.200;2023-01-04T08:22:31;3.55;;;1.42;;
24157;SDS011;12316;50.904;4.200;2023-01-04T08:24:57;2.75;;;1.10;;
24157;SDS011;12316;50.904;4.200;2023-01-04T08:27:23;3.97;;;1.45;;
24157;SDS011;12316;50.904;4.200;2023-01-04T08:29:48;3.38;;;1.50;;
24157;SDS011;12316;50.904;4.200;2023-01-04T08:32:14;1.75;;;1.20;;
24157;SDS011;12316;50.904;4.200;2023-01-04T08:34:39;4.63;;;1.40;;
24157;SDS011;12316;50.904;4.200;2023-01-04T08:37:05;2.42;;;1.50;;
24157;SDS011;12316;50.904;4.200;2023-01-04T08:39:31;4.90;;;1.38;;
24157;SDS011;12316;50.904;4.200;2023-01-04T08:42:00;5.50;;;1.30;;
24157;SDS011;12316;50.904;4.200;2023-01-04T08:44:26;2.92;;;1.13;;
24157;SDS011;12316;50.904;4.200;2023-01-04T08:46:53;6.75;;;1.50;;
24157;SDS011;12316;50.904;4.200;2023-01-04T08:49:19;5.10;;;1.23;;
24157;SDS011;12316;50.904;4.200;2023-01-04T08:51:46;4.22;;;1.50;;
24157;SDS011;12316;50.904;4.200;2023-01-04T08:54:12;6.07;;;1.40;;
24157;SDS011;12316;50.904;4.200;2023-01-04T08:56:38;6.25;;;1.42;;
24157;SDS011;12316;50.904;4.200;2023-01-04T08:59:05;4.70;;;1.38;;
24157;SDS011;12316;50.904;4.200;2023-01-04T09:01:32;2.92;;;1.15;;
24157;SDS011;12316;50.904;4.200;2023-01-04T09:03:58;4.75;;;1.30;;
24157;SDS011;12316;50.904;4.200;2023-01-04T09:06:24;7.82;;;1.55;;
24157;SDS011;12316;50.904;4.200;2023-01-04T09:08:50;4.55;;;1.42;;
24157;SDS011;12316;50.904;4.200;2023-01-04T09:11:17;3.92;;;1.52;;
24157;SDS011;12316;50.904;4.200;2023-01-04T09:13:45;3.83;;;1.23;;
24157;SDS011;12316;50.904;4.200;2023-01-04T09:16:12;6.95;;;1.40;;
24157;SDS011;12316;50.904;4.200;2023-01-04T09:18:39;5.53;;;1.38;;
24157;SDS011;12316;50.904;4.200;2023-01-04T09:21:06;3.35;;;1.20;;
24157;SDS011;12316;50.904;4.200;2023-01-04T09:23:33;3.92;;;1.10;;
24157;SDS011;12316;50.904;4.200;2023-01-04T09:26:06;3.15;;;0.95;;
24157;SDS011;12316;50.904;4.200;2023-01-04T09:28:34;5.93;;;1.20;;
24157;SDS011;12316;50.904;4.200;2023-01-04T09:31:10;3.53;;;1.08;;
24157;SDS011;12316;50.904;4.200;2023-01-04T09:33:37;4.45;;;0.98;;
24157;SDS011;12316;50.904;4.200;2023-01-04T09:36:03;4.40;;;1.02;;
24157;SDS011;12316;50.904;4.200;2023-01-04T09:38:30;3.70;;;1.00;;
24157;SDS011;12316;50.904;4.200;2023-01-04T09:43:38;5.28;;;1.00;;
24157;SDS011;12316;50.904;4.200;2023-01-04T09:46:08;2.25;;;1.10;;
24157;SDS011;12316;50.904;4.200;2023-01-04T09:48:36;3.78;;;0.90;;
24157;SDS011;12316;50.904;4.200;2023-01-04T09:51:06;2.03;;;0.93;;
24157;SDS011;12316;50.904;4.200;2023-01-04T09:53:43;1.05;;;0.88;;
24157;SDS011;12316;50.904;4.200;2023-01-04T09:58:47;2.47;;;1.27;;
24157;SDS011;12316;50.904;4.200;2023-01-04T10:01:15;2.65;;;0.80;;
24157;SDS011;12316;50.904;4.200;2023-01-04T10:04:04;3.75;;;1.33;;
24157;SDS011;12316;50.904;4.200;2023-01-04T10:06:39;2.38;;;1.05;;
24157;SDS011;12316;50.904;4.200;2023-01-04T10:09:14;3.05;;;0.90;;
24157;SDS011;12316;50.904;4.200;2023-01-04T10:24:57;4.40;;;1.10;;
24157;SDS011;12316;50.904;4.200;2023-01-04T10:27:39;2.97;;;1.17;;
24157;SDS011;12316;50.904;4.200;2023-01-04T10:33:03;4.75;;;1.55;;
24157;SDS011;12316;50.904;4.200;2023-01-04T10:35:37;3.63;;;1.33;;
24157;SDS011;12316;50.904;4.200;2023-01-04T10:38:09;2.90;;;1.45;;
24157;SDS011;12316;50.904;4.200;2023-01-04T10:40:39;6.22;;;1.50;;
24157;SDS011;12316;50.904;4.200;2023-01-04T10:43:17;3.13;;;1.17;;
24157;SDS011;12316;50.904;4.200;2023-01-04T10:45:48;6.55;;;1.50;;
24157;SDS011;12316;50.904;4.200;2023-01-04T10:51:05;4.40;;;1.30;;
24157;SDS011;12316;50.904;4.200;2023-01-04T10:59:03;6.47;;;1.60;;
24157;SDS011;12316;50.904;4.200;2023-01-04T11:01:38;3.88;;;1.60;;
24157;SDS011;12316;50.904;4.200;2023-01-04T11:04:28;3.80;;;1.50;;
24157;SDS011;12316;50.904;4.200;2023-01-04T11:07:09;4.00;;;1.38;;
24157;SDS011;12316;50.904;4.200;2023-01-04T11:12:12;4.05;;;1.60;;
24157;SDS011;12316;50.904;4.200;2023-01-04T11:14:39;5.45;;;1.83;;
24157;SDS011;12316;50.904;4.200;2023-01-04T11:17:06;4.72;;;1.45;;
24157;SDS011;12316;50.904;4.200;2023-01-04T11:19:34;7.03;;;1.80;;
24157;SDS011;12316;50.904;4.200;2023-01-04T11:22:05;3.83;;;1.50;;
24157;SDS011;12316;50.904;4.200;2023-01-04T11:24:44;4.82;;;1.48;;
24157;SDS011;12316;50.904;4.200;2023-01-04T11:27:16;4.63;;;1.45;;
24157;SDS011;12316;50.904;4.200;2023-01-04T11:29:48;4.82;;;1.55;;
24157;SDS011;12316;50.904;4.200;2023-01-04T11:35:06;3.58;;;1.38;;
24157;SDS011;12316;50.904;4.200;2023-01-04T11:37:33;5.15;;;1.60;;
24157;SDS011;12316;50.904;4.200;2023-01-04T11:42:40;3.67;;;1.60;;
24157;SDS011;12316;50.904;4.200;2023-01-04T11:45:17;6.10;;;1.50;;
24157;SDS011;12316;50.904;4.200;2023-01-04T11:47:46;5.30;;;1.45;;
24157;SDS011;12316;50.904;4.200;2023-01-04T11:50:58;4.55;;;1.40;;
24157;SDS011;12316;50.904;4.200;2023-01-04T11:56:15;4.75;;;1.42;;
24157;SDS011;12316;50.904;4.200;2023-01-04T11:58:43;3.85;;;1.50;;
24157;SDS011;12316;50.904;4.200;2023-01-04T12:01:27;5.10;;;1.60;;
24157;SDS011;12316;50.904;4.200;2023-01-04T12:03:53;5.40;;;1.50;;
24157;SDS011;12316;50.904;4.200;2023-01-04T12:08:48;6.20;;;1.65;;
24157;SDS011;12316;50.904;4.200;2023-01-04T12:11:18;1.95;;;1.30;;
24157;SDS011;12316;50.904;4.200;2023-01-04T12:13:50;3.17;;;1.42;;
24157;SDS011;12316;50.904;4.200;2023-01-04T12:16:20;4.30;;;1.48;;
24157;SDS011;12316;50.904;4.200;2023-01-04T12:19:09;6.47;;;1.73;;
24157;SDS011;12316;50.904;4.200;2023-01-04T12:21:38;5.63;;;1.40;;
24157;SDS011;12316;50.904;4.200;2023-01-04T12:24:04;2.88;;;1.40;;
24157;SDS011;12316;50.904;4.200;2023-01-04T12:26:31;3.08;;;1.40;;
24157;SDS011;12316;50.904;4.200;2023-01-04T12:30:00;3.80;;;1.50;;
24157;SDS011;12316;50.904;4.200;2023-01-04T12:36:58;1.48;;;1.20;;
24157;SDS011;12316;50.904;4.200;2023-01-04T12:39:27;3.17;;;1.35;;
24157;SDS011;12316;50.904;4.200;2023-01-04T12:42:17;2.83;;;1.20;;
24157;SDS011;12316;50.904;4.200;2023-01-04T12:57:58;1.73;;;1.25;;
24157;SDS011;12316;50.904;4.200;2023-01-04T13:05:52;2.05;;;1.40;;
24157;SDS011;12316;50.904;4.200;2023-01-04T13:08:20;3.83;;;1.50;;
24157;SDS011;12316;50.904;4.200;2023-01-04T13:13:19;2.35;;;1.90;;
24157;SDS011;12316;50.904;4.200;2023-01-04T13:18:51;7.00;;;2.40;;
24157;SDS011;12316;50.904;4.200;2023-01-04T13:21:39;3.97;;;2.35;;
24157;SDS011;12316;50.904;4.200;2023-01-04T13:27:04;4.50;;;2.10;;
24157;SDS011;12316;50.904;4.200;2023-01-04T13:29:40;6.82;;;2.80;;
24157;SDS011;12316;50.904;4.200;2023-01-04T13:34:52;6.90;;;2.67;;
24157;SDS011;12316;50.904;4.200;2023-01-04T13:39:51;4.07;;;3.08;;
24157;SDS011;12316;50.904;4.200;2023-01-04T13:42:46;7.38;;;3.60;;
24157;SDS011;12316;50.904;4.200;2023-01-04T13:45:37;5.63;;;3.47;;
24157;SDS011;12316;50.904;4.200;2023-01-04T13:48:11;5.47;;;3.33;;
24157;SDS011;12316;50.904;4.200;2023-01-04T13:50:42;7.50;;;3.65;;
24157;SDS011;12316;50.904;4.200;2023-01-04T13:53:22;10.45;;;3.60;;
24157;SDS011;12316;50.904;4.200;2023-01-04T13:55:56;9.55;;;3.88;;
24157;SDS011;12316;50.904;4.200;2023-01-04T13:58:28;8.38;;;3.50;;
24157;SDS011;12316;50.904;4.200;2023-01-04T14:08:56;6.82;;;3.28;;
24157;SDS011;12316;50.904;4.200;2023-01-04T14:14:28;7.50;;;2.85;;
24157;SDS011;12316;50.904;4.200;2023-01-04T14:19:46;5.82;;;2.70;;
24157;SDS011;12316;50.904;4.200;2023-01-04T14:25:00;6.00;;;2.70;;
24157;SDS011;12316;50.904;4.200;2023-01-04T14:33:32;5.97;;;2.45;;
24157;SDS011;12316;50.904;4.200;2023-01-04T14:43:51;4.55;;;2.28;;
24157;SDS011;12316;50.904;4.200;2023-01-04T14:46:23;4.72;;;2.10;;
24157;SDS011;12316;50.904;4.200;2023-01-04T14:48:49;4.70;;;2.58;;
24157;SDS011;12316;50.904;4.200;2023-01-04T14:51:16;6.10;;;2.30;;
24157;SDS011;12316;50.904;4.200;2023-01-04T14:53:45;5.68;;;2.50;;
24157;SDS011;12316;50.904;4.200;2023-01-04T14:56:14;4.38;;;2.10;;
24157;SDS011;12316;50.904;4.200;2023-01-04T14:58:41;4.15;;;2.00;;
24157;SDS011;12316;50.904;4.200;2023-01-04T15:01:08;4.28;;;1.90;;
24157;SDS011;12316;50.904;4.200;2023-01-04T15:03:35;5.40;;;2.05;;
24157;SDS011;12316;50.904;4.200;2023-01-04T15:06:00;6.97;;;2.28;;
24157;SDS011;12316;50.904;4.200;2023-01-04T15:08:26;10.68;;;2.15;;
24157;SDS011;12316;50.904;4.200;2023-01-04T15:10:52;5.43;;;1.45;;
24157;SDS011;12316;50.904;4.200;2023-01-04T15:13:17;6.68;;;1.48;;
24157;SDS011;12316;50.904;4.200;2023-01-04T15:15:43;7.85;;;1.63;;
24157;SDS011;12316;50.904;4.200;2023-01-04T15:18:09;6.32;;;1.52;;
24157;SDS011;12316;50.904;4.200;2023-01-04T15:20:37;9.75;;;1.90;;
24157;SDS011;12316;50.904;4.200;2023-01-04T15:23:03;13.20;;;2.30;;
24157;SDS011;12316;50.904;4.200;2023-01-04T15:25:29;15.02;;;2.20;;
24157;SDS011;12316;50.904;4.200;2023-01-04T15:27:55;17.48;;;2.72;;
24157;SDS011;12316;50.904;4.200;2023-01-04T15:30:21;16.52;;;2.63;;
24157;SDS011;12316;50.904;4.200;2023-01-04T15:32:47;16.23;;;3.13;;
24157;SDS011;12316;50.904;4.200;2023-01-04T15:35:13;21.63;;;3.00;;
24157;SDS011;12316;50.904;4.200;2023-01-04T15:37:41;19.48;;;3.03;;
24157;SDS011;12316;50.904;4.200;2023-01-04T15:40:08;21.73;;;3.20;;
24157;SDS011;12316;50.904;4.200;2023-01-04T15:42:35;24.70;;;3.55;;
24157;SDS011;12316;50.904;4.200;2023-01-04T15:45:19;24.08;;;3.45;;
24157;SDS011;12316;50.904;4.200;2023-01-04T15:47:46;30.30;;;3.88;;
24157;SDS011;12316;50.904;4.200;2023-01-04T15:50:12;32.60;;;4.97;;
24157;SDS011;12316;50.904;4.200;2023-01-04T15:52:38;25.40;;;3.88;;
24157;SDS011;12316;50.904;4.200;2023-01-04T15:55:03;27.98;;;4.50;;
24157;SDS011;12316;50.904;4.200;2023-01-04T15:57:29;33.42;;;4.53;;
24157;SDS011;12316;50.904;4.200;2023-01-04T15:59:56;31.13;;;3.97;;
24157;SDS011;12316;50.904;4.200;2023-01-04T16:02:22;33.67;;;4.40;;
24157;SDS011;12316;50.904;4.200;2023-01-04T16:04:47;35.50;;;4.78;;
24157;SDS011;12316;50.904;4.200;2023-01-04T16:07:13;36.17;;;4.97;;
24157;SDS011;12316;50.904;4.200;2023-01-04T16:09:39;35.63;;;4.85;;
24157;SDS011;12316;50.904;4.200;2023-01-04T16:12:04;39.00;;;5.05;;
24157;SDS011;12316;50.904;4.200;2023-01-04T16:14:49;38.47;;;4.95;;
24157;SDS011;12316;50.904;4.200;2023-01-04T16:17:15;35.35;;;4.90;;
24157;SDS011;12316;50.904;4.200;2023-01-04T16:19:40;32.50;;;4.93;;
24157;SDS011;12316;50.904;4.200;2023-01-04T16:22:06;34.83;;;5.30;;
24157;SDS011;12316;50.904;4.200;2023-01-04T16:24:32;31.50;;;5.18;;
24157;SDS011;12316;50.904;4.200;2023-01-04T16:26:57;35.03;;;5.15;;
24157;SDS011;12316;50.904;4.200;2023-01-04T16:29:23;37.03;;;4.85;;
24157;SDS011;12316;50.904;4.200;2023-01-04T16:31:49;35.25;;;4.70;;
24157;SDS011;12316;50.904;4.200;2023-01-04T16:34:14;34.63;;;5.03;;
24157;SDS011;12316;50.904;4.200;2023-01-04T16:36:40;39.90;;;5.45;;
24157;SDS011;12316;50.904;4.200;2023-01-04T16:39:06;34.90;;;5.20;;
24157;SDS011;12316;50.904;4.200;2023-01-04T16:41:32;39.30;;;5.43;;
24157;SDS011;12316;50.904;4.200;2023-01-04T16:43:58;30.85;;;5.00;;
24157;SDS011;12316;50.904;4.200;2023-01-04T16:51:19;40.55;;;5.60;;
24157;SDS011;12316;50.904;4.200;2023-01-04T16:53:45;39.05;;;5.45;;
24157;SDS011;12316;50.904;4.200;2023-01-04T16:56:12;34.00;;;5.38;;
24157;SDS011;12316;50.904;4.200;2023-01-04T16:58:39;34.35;;;5.47;;
24157;SDS011;12316;50.904;4.200;2023-01-04T17:01:15;37.45;;;6.03;;
24157;SDS011;12316;50.904;4.200;2023-01-04T17:03:42;35.05;;;5.15;;
24157;SDS011;12316;50.904;4.200;2023-01-04T17:06:10;32.95;;;5.72;;
24157;SDS011;12316;50.904;4.200;2023-01-04T17:08:38;40.15;;;7.65;;
24157;SDS011;12316;50.904;4.200;2023-01-04T17:11:07;38.72;;;6.18;;
24157;SDS011;12316;50.904;4.200;2023-01-04T17:13:41;36.28;;;5.38;;
24157;SDS011;12316;50.904;4.200;2023-01-04T17:16:07;46.40;;;6.85;;
24157;SDS011;12316;50.904;4.200;2023-01-04T17:18:34;32.45;;;5.05;;
24157;SDS011;12316;50.904;4.200;2023-01-04T17:21:01;38.47;;;6.15;;
24157;SDS011;12316;50.904;4.200;2023-01-04T17:23:28;35.80;;;5.53;;
24157;SDS011;12316;50.904;4.200;2023-01-04T17:25:58;36.65;;;6.53;;
24157;SDS011;12316;50.904;4.200;2023-01-04T17:28:26;41.47;;;5.57;;
24157;SDS011;12316;50.904;4.200;2023-01-04T17:30:52;36.15;;;5.95;;
24157;SDS011;12316;50.904;4.200;2023-01-04T17:33:18;48.75;;;6.25;;
24157;SDS011;12316;50.904;4.200;2023-01-04T17:35:44;39.05;;;5.55;;
24157;SDS011;12316;50.904;4.200;2023-01-04T17:38:09;40.67;;;6.07;;
24157;SDS011;12316;50.904;4.200;2023-01-04T17:40:35;44.17;;;6.28;;